createdAt,value
2019-01-26T00:00:33.118Z,100525.64
2019-01-26T00:03:05.285Z,100537.22
2019-01-26T00:05:37.070Z,100536.95
2019-01-26T00:08:20.609Z,100533.52
2019-01-26T00:10:52.517Z,100522.92
2019-01-26T00:13:24.215Z,100522.19
2019-01-26T00:15:56.133Z,100518.03
2019-01-26T00:18:27.740Z,100513.33
2019-01-26T00:20:59.327Z,100514.70
2019-01-26T00:23:30.940Z,100517.48
2019-01-26T00:26:02.713Z,100503.77
2019-01-26T00:28:34.325Z,100503.19
2019-01-26T00:31:06.135Z,100497.59
2019-01-26T00:33:37.752Z,100489.09
2019-01-26T00:36:09.358Z,100495.42
2019-01-26T00:38:40.946Z,100480.17
2019-01-26T00:41:12.913Z,100483.72
2019-01-26T00:43:44.531Z,100469.92
2019-01-26T00:46:16.679Z,100477.84
2019-01-26T00:48:48.265Z,100464.39
2019-01-26T00:51:19.867Z,100462.64
2019-01-26T00:53:51.572Z,100458.30
2019-01-26T00:56:23.545Z,100461.44
2019-01-26T00:58:55.184Z,100451.30
2019-01-26T01:01:26.832Z,100447.29
2019-01-26T01:03:58.818Z,100453.42
2019-01-26T01:06:30.486Z,100445.52
2019-01-26T01:09:02.237Z,100436.26
2019-01-26T01:11:36.179Z,100428.30
2019-01-26T01:14:07.813Z,100424.30
2019-01-26T01:16:40.495Z,100425.59
2019-01-26T01:19:12.581Z,100415.50
2019-01-26T01:21:44.243Z,100416.76
2019-01-26T01:24:16.497Z,100414.62
2019-01-26T01:26:48.335Z,100401.95
2019-01-26T01:29:19.914Z,100397.84
2019-01-26T01:31:51.589Z,100390.00
2019-01-26T01:34:23.582Z,100381.70
2019-01-26T01:36:55.183Z,100384.73
2019-01-26T01:39:26.965Z,100381.16
2019-01-26T01:41:59.381Z,100374.12
2019-01-26T01:44:31.165Z,100370.25
2019-01-26T01:47:05.899Z,100360.44
2019-01-26T01:49:37.962Z,100360.38
2019-01-26T01:52:09.564Z,100353.34
2019-01-26T01:54:41.246Z,100353.81
2019-01-26T01:57:14.143Z,100350.70
2019-01-26T01:59:45.726Z,100348.56
2019-01-26T02:02:17.332Z,100349.51
2019-01-26T02:04:48.941Z,100339.81
2019-01-26T02:07:29.668Z,100336.29
2019-01-26T02:10:12.264Z,100332.24
2019-01-26T02:12:46.903Z,100324.34
2019-01-26T02:15:18.648Z,100317.23
2019-01-26T02:17:50.268Z,100309.41
2019-01-26T02:20:22.924Z,100307.19
2019-01-26T02:22:54.507Z,100301.06
2019-01-26T02:25:26.102Z,100298.81
2019-01-26T02:27:59.029Z,100279.16
2019-01-26T02:30:30.645Z,100277.78
2019-01-26T02:33:02.254Z,100275.61
2019-01-26T02:35:35.604Z,100276.96
2019-01-26T02:38:07.357Z,100277.32
2019-01-26T02:40:38.962Z,100277.73
2019-01-26T02:43:10.568Z,100270.75
2019-01-26T02:45:42.160Z,100260.21
2019-01-26T02:48:13.847Z,100247.38
2019-01-26T02:50:45.491Z,100248.25
2019-01-26T02:53:18.155Z,100234.64
2019-01-26T02:55:49.735Z,100230.70
2019-01-26T02:58:21.339Z,100225.84
2019-01-26T03:00:53.527Z,100236.39
2019-01-26T03:03:25.159Z,100232.04
2019-01-26T03:05:57.558Z,100221.44
2019-01-26T03:08:29.231Z,100211.30
2019-01-26T03:11:00.942Z,100210.02
2019-01-26T03:13:32.526Z,100213.96
2019-01-26T03:16:04.841Z,100211.33
2019-01-26T03:18:36.451Z,100213.95
2019-01-26T03:21:08.133Z,100205.20
2019-01-26T03:23:39.919Z,100191.08
2019-01-26T03:26:11.520Z,100187.16
2019-01-26T03:28:43.117Z,100180.52
2019-01-26T03:31:14.709Z,100178.31
2019-01-26T03:33:46.408Z,100175.69
2019-01-26T03:36:18.897Z,100173.47
2019-01-26T03:38:50.724Z,100165.56
2019-01-26T03:41:22.339Z,100164.68
2019-01-26T03:43:55.012Z,100146.61
2019-01-26T03:46:26.673Z,100142.66
2019-01-26T03:48:58.276Z,100136.06
2019-01-26T03:51:29.876Z,100136.07
2019-01-26T03:54:01.554Z,100128.56
2019-01-26T03:56:33.143Z,100124.16
2019-01-26T03:59:05.371Z,100119.34
2019-01-26T04:01:37.015Z,100127.27
2019-01-26T04:04:08.621Z,100131.23
2019-01-26T04:06:40.262Z,100119.75
2019-01-26T04:09:11.864Z,100110.97
2019-01-26T04:11:43.533Z,100111.86
2019-01-26T04:14:15.318Z,100107.41
2019-01-26T04:16:46.907Z,100098.67
2019-01-26T04:19:18.556Z,100097.34
2019-01-26T04:21:58.811Z,100097.80
2019-01-26T04:24:32.729Z,100082.82
2019-01-26T04:27:04.339Z,100088.11
2019-01-26T04:29:35.932Z,100084.59
2019-01-26T04:32:07.553Z,100075.80
2019-01-26T04:34:39.292Z,100076.66
2019-01-26T04:37:10.910Z,100073.55
2019-01-26T04:39:42.484Z,100065.16
2019-01-26T04:42:14.103Z,100062.95
2019-01-26T04:44:45.712Z,100058.15
2019-01-26T04:47:17.294Z,100053.34
2019-01-26T04:49:48.996Z,100052.05
2019-01-26T04:52:21.134Z,100040.55
2019-01-26T04:54:52.812Z,100036.09
2019-01-26T04:57:24.427Z,100033.34
2019-01-26T04:59:56.086Z,100034.25
2019-01-26T05:02:27.685Z,100034.22
2019-01-26T05:04:59.289Z,100034.19
2019-01-26T05:07:30.904Z,100039.52
2019-01-26T05:10:02.520Z,100045.76
2019-01-26T05:12:34.125Z,100044.44
2019-01-26T05:15:10.149Z,100039.64
2019-01-26T05:17:41.756Z,100028.98
2019-01-26T05:20:23.376Z,100028.89
2019-01-26T05:22:55.009Z,100019.20
2019-01-26T05:25:26.616Z,100015.84
2019-01-26T05:27:58.380Z,100007.47
2019-01-26T05:30:29.997Z,100015.06
2019-01-26T05:33:01.600Z,100013.77
2019-01-26T05:35:33.224Z,99999.61
2019-01-26T05:38:04.826Z,100000.37
2019-01-26T05:40:36.428Z,99999.81
2019-01-26T05:43:09.111Z,99997.66
2019-01-26T05:45:41.027Z,99999.86
2019-01-26T05:48:12.638Z,99989.23
2019-01-26T05:50:44.253Z,99994.08
2019-01-26T05:53:15.952Z,99992.92
2019-01-26T05:55:47.594Z,99988.10
2019-01-26T05:58:19.161Z,99981.83
2019-01-26T06:00:50.762Z,99981.33
2019-01-26T06:03:22.438Z,99981.29
2019-01-26T06:05:54.141Z,99973.79
2019-01-26T06:08:25.788Z,99969.87
2019-01-26T06:10:57.384Z,99976.86
2019-01-26T06:13:28.986Z,99971.58
2019-01-26T06:16:00.629Z,99975.57
2019-01-26T06:18:32.210Z,99963.62
2019-01-26T06:21:04.592Z,99963.62
2019-01-26T06:23:36.250Z,99967.99
2019-01-26T06:26:07.849Z,99962.87
2019-01-26T06:28:39.470Z,99968.78
2019-01-26T06:31:11.389Z,99963.56
2019-01-26T06:33:43.005Z,99963.02
2019-01-26T06:36:14.684Z,99951.94
2019-01-26T06:38:46.394Z,99950.48
2019-01-26T06:41:17.999Z,99952.12
2019-01-26T06:43:49.676Z,99943.81
2019-01-26T06:46:21.267Z,99935.86
2019-01-26T06:48:54.505Z,99941.60
2019-01-26T06:51:26.105Z,99939.45
2019-01-26T06:53:57.691Z,99930.16
2019-01-26T06:56:29.290Z,99928.88
2019-01-26T06:59:00.899Z,99925.77
2019-01-26T07:01:32.669Z,99925.74
2019-01-26T07:04:04.868Z,99921.72
2019-01-26T07:06:38.963Z,99915.45
2019-01-26T07:09:10.585Z,99915.84
2019-01-26T07:11:42.344Z,99913.27
2019-01-26T07:14:14.211Z,99907.94
2019-01-26T07:16:45.806Z,99903.61
2019-01-26T07:19:17.657Z,99897.05
2019-01-26T07:21:49.390Z,99896.10
2019-01-26T07:24:20.994Z,99897.36
2019-01-26T07:26:52.635Z,99890.25
2019-01-26T07:29:24.225Z,99887.17
2019-01-26T07:31:57.458Z,99880.59
2019-01-26T07:34:30.717Z,99874.88
2019-01-26T07:37:02.483Z,99866.59
2019-01-26T07:39:34.085Z,99876.20
2019-01-26T07:42:05.655Z,99862.48
2019-01-26T07:44:41.481Z,99862.91
2019-01-26T07:47:13.339Z,99862.01
2019-01-26T07:49:45.024Z,99857.58
2019-01-26T07:52:16.665Z,99853.22
2019-01-26T07:54:48.823Z,99847.77
2019-01-26T07:57:20.432Z,99838.78
2019-01-26T07:59:52.673Z,99839.09
2019-01-26T08:02:24.265Z,99841.63
2019-01-26T08:04:55.861Z,99847.53
2019-01-26T08:07:28.645Z,99846.09
2019-01-26T08:10:00.336Z,99843.06
2019-01-26T08:12:31.938Z,99839.83
2019-01-26T08:15:04.583Z,99841.54
2019-01-26T08:17:36.426Z,99838.85
2019-01-26T08:20:17.478Z,99837.53
2019-01-26T08:22:49.089Z,99827.23
2019-01-26T08:25:20.751Z,99830.95
2019-01-26T08:27:52.333Z,99833.13
2019-01-26T08:30:24.963Z,99830.57
2019-01-26T08:32:56.556Z,99828.78
2019-01-26T08:35:28.133Z,99827.88
2019-01-26T08:37:59.926Z,99830.05
2019-01-26T08:40:31.585Z,99829.25
2019-01-26T08:43:03.233Z,99834.54
2019-01-26T08:45:34.829Z,99827.80
2019-01-26T08:48:07.337Z,99831.77
2019-01-26T08:50:38.918Z,99834.28
2019-01-26T08:53:10.560Z,99826.57
2019-01-26T08:55:42.148Z,99822.74
2019-01-26T08:58:14.246Z,99826.25
2019-01-26T09:00:45.807Z,99819.05
2019-01-26T09:03:25.003Z,99814.98
2019-01-26T09:06:02.814Z,99827.59
2019-01-26T09:08:35.878Z,99820.50
2019-01-26T09:11:07.462Z,99818.05
2019-01-26T09:13:39.036Z,99817.36
2019-01-26T09:16:10.767Z,99830.03
2019-01-26T09:18:42.399Z,99813.18
2019-01-26T09:21:13.970Z,99813.77
2019-01-26T09:23:45.941Z,99809.66
2019-01-26T09:26:17.521Z,99796.79
2019-01-26T09:28:49.190Z,99797.94
2019-01-26T09:31:20.821Z,99795.72
2019-01-26T09:33:52.450Z,99791.55
2019-01-26T09:36:24.038Z,99794.12
2019-01-26T09:38:55.627Z,99798.52
2019-01-26T09:41:27.865Z,99797.98
2019-01-26T09:43:59.449Z,99789.88
2019-01-26T09:46:31.054Z,99790.59
2019-01-26T09:49:03.585Z,99786.04
2019-01-26T09:51:35.351Z,99780.53
2019-01-26T09:54:06.918Z,99785.27
2019-01-26T09:56:38.497Z,99778.86
2019-01-26T09:59:10.083Z,99778.39
2019-01-26T10:01:41.685Z,99781.15
2019-01-26T10:04:13.398Z,99775.73
2019-01-26T10:06:44.986Z,99771.82
2019-01-26T10:09:16.588Z,99771.33
2019-01-26T10:11:48.256Z,99764.13
2019-01-26T10:14:19.846Z,99755.34
2019-01-26T10:16:54.507Z,99758.83
2019-01-26T10:19:26.430Z,99751.17
2019-01-26T10:21:58.103Z,99741.80
2019-01-26T10:24:29.684Z,99740.41
2019-01-26T10:27:01.349Z,99732.38
2019-01-26T10:29:32.940Z,99735.58
2019-01-26T10:32:05.109Z,99733.29
2019-01-26T10:34:36.865Z,99727.20
2019-01-26T10:37:10.084Z,99720.08
2019-01-26T10:39:41.739Z,99724.02
2019-01-26T10:42:15.018Z,99722.50
2019-01-26T10:44:49.276Z,99743.00
2019-01-26T10:47:21.205Z,99733.22
2019-01-26T10:49:52.816Z,99738.56
2019-01-26T10:52:24.376Z,99740.05
2019-01-26T10:54:55.968Z,99734.48
2019-01-26T10:57:27.558Z,99739.45
2019-01-26T10:59:59.127Z,99731.12
2019-01-26T11:02:30.723Z,99728.06
2019-01-26T11:05:02.429Z,99725.34
2019-01-26T11:07:34.001Z,99728.54
2019-01-26T11:10:10.788Z,99721.32
2019-01-26T11:12:42.474Z,99725.70
2019-01-26T11:15:15.085Z,99721.99
2019-01-26T11:17:46.753Z,99713.13
2019-01-26T11:20:18.360Z,99717.14
2019-01-26T11:22:50.032Z,99720.53
2019-01-26T11:25:21.857Z,99724.92
2019-01-26T11:27:53.410Z,99733.49
2019-01-26T11:30:27.145Z,99727.56
2019-01-26T11:32:58.844Z,99722.22
2019-01-26T11:35:30.557Z,99719.89
2019-01-26T11:38:02.138Z,99715.70
2019-01-26T11:40:33.764Z,99710.07
2019-01-26T11:43:05.346Z,99708.17
2019-01-26T11:45:43.183Z,99707.60
2019-01-26T11:48:28.519Z,99703.69
2019-01-26T11:51:04.735Z,99706.59
2019-01-26T11:53:36.325Z,99697.48
2019-01-26T11:56:25.820Z,99708.26
2019-01-26T11:58:57.417Z,99704.61
2019-01-26T12:01:44.660Z,99697.71
2019-01-26T12:04:17.883Z,99697.38
2019-01-26T12:06:51.162Z,99696.23
2019-01-26T12:09:22.826Z,99696.63
2019-01-26T12:11:54.474Z,99697.30
2019-01-26T12:14:26.250Z,99690.44
2019-01-26T12:16:57.928Z,99687.84
2019-01-26T12:19:29.548Z,99685.05
2019-01-26T12:22:01.147Z,99692.18
2019-01-26T12:24:32.766Z,99682.69
2019-01-26T12:27:04.446Z,99685.17
2019-01-26T12:29:36.344Z,99682.33
2019-01-26T12:32:07.904Z,99689.41
2019-01-26T12:34:39.596Z,99690.25
2019-01-26T12:37:11.192Z,99689.59
2019-01-26T12:39:42.809Z,99680.47
2019-01-26T12:42:14.425Z,99688.28
2019-01-26T12:44:46.250Z,99681.17
2019-01-26T12:47:17.926Z,99683.15
2019-01-26T12:49:49.531Z,99676.50
2019-01-26T12:52:21.259Z,99677.67
2019-01-26T12:54:52.850Z,99667.84
2019-01-26T12:57:24.573Z,99674.45
2019-01-26T12:59:56.301Z,99678.45
2019-01-26T13:02:27.887Z,99671.79
2019-01-26T13:04:59.754Z,99675.17
2019-01-26T13:07:31.365Z,99671.00
2019-01-26T13:10:05.346Z,99675.70
2019-01-26T13:12:37.010Z,99669.38
2019-01-26T13:15:15.217Z,99673.74
2019-01-26T13:17:42.312Z,99671.20
2019-01-26T13:20:17.351Z,99675.89
2019-01-26T13:22:48.940Z,99680.13
2019-01-26T13:25:20.689Z,99684.07
2019-01-26T13:27:52.367Z,99684.07
2019-01-26T13:30:25.573Z,99678.89
2019-01-26T13:32:58.085Z,99687.64
2019-01-26T13:35:29.709Z,99681.72
2019-01-26T13:38:01.306Z,99692.99
2019-01-26T13:40:36.374Z,99684.03
2019-01-26T13:43:07.967Z,99687.61
2019-01-26T13:45:40.736Z,99683.73
2019-01-26T13:48:12.317Z,99691.23
2019-01-26T13:50:43.917Z,99683.27
2019-01-26T13:53:15.528Z,99687.11
2019-01-26T13:55:47.555Z,99687.03
2019-01-26T13:58:19.844Z,99687.16
2019-01-26T14:00:51.505Z,99692.03
2019-01-26T14:03:23.113Z,99689.53
2019-01-26T14:05:55.033Z,99694.61
2019-01-26T14:08:26.694Z,99694.91
2019-01-26T14:10:59.204Z,99695.87
2019-01-26T14:13:30.811Z,99695.23
2019-01-26T14:16:02.389Z,99691.56
2019-01-26T14:18:34.021Z,99699.59
2019-01-26T14:21:05.995Z,99694.14
2019-01-26T14:23:42.717Z,99699.37
2019-01-26T14:26:14.570Z,99699.73
2019-01-26T14:28:46.199Z,99703.47
2019-01-26T14:31:18.033Z,99697.71
2019-01-26T14:33:50.624Z,99695.91
2019-01-26T14:36:22.369Z,99690.51
2019-01-26T14:38:53.973Z,99689.72
2019-01-26T14:41:26.349Z,99689.48
2019-01-26T14:43:59.590Z,99690.51
2019-01-26T14:46:31.311Z,99698.25
2019-01-26T14:49:03.062Z,99688.42
2019-01-26T14:51:34.761Z,99694.48
2019-01-26T14:54:06.775Z,99689.81
2019-01-26T14:56:41.741Z,99687.83
2019-01-26T14:59:13.337Z,99688.81
2019-01-26T15:01:46.383Z,99683.06
2019-01-26T15:04:18.050Z,99690.05
2019-01-26T15:06:49.710Z,99689.42
2019-01-26T15:09:21.880Z,99681.70
2019-01-26T15:11:56.383Z,99686.13
2019-01-26T15:14:28.272Z,99691.52
2019-01-26T15:17:05.073Z,99692.27
2019-01-26T15:19:41.371Z,99687.67
2019-01-26T15:22:13.118Z,99687.23
2019-01-26T15:24:44.683Z,99689.58
2019-01-26T15:27:16.531Z,99687.62
2019-01-26T15:29:48.198Z,99684.73
2019-01-26T15:32:19.802Z,99683.63
2019-01-26T15:34:51.395Z,99689.48
2019-01-26T15:37:24.124Z,99695.05
2019-01-26T15:39:55.800Z,99690.27
2019-01-26T15:42:27.474Z,99688.02
2019-01-26T15:44:59.079Z,99685.27
2019-01-26T15:47:30.743Z,99689.67
2019-01-26T15:50:02.327Z,99692.66
2019-01-26T15:52:34.043Z,99695.41
2019-01-26T15:55:10.568Z,99691.40
2019-01-26T15:57:42.223Z,99691.42
2019-01-26T16:00:18.489Z,99697.73
2019-01-26T16:02:50.283Z,99701.22
2019-01-26T16:05:21.924Z,99699.78
2019-01-26T16:07:53.602Z,99706.91
2019-01-26T16:10:25.919Z,99714.48
2019-01-26T16:12:57.649Z,99715.37
2019-01-26T16:15:37.911Z,99713.17
2019-01-26T16:18:12.537Z,99715.56
2019-01-26T16:20:44.231Z,99714.71
2019-01-26T16:23:16.635Z,99715.39
2019-01-26T16:25:48.528Z,99715.30
2019-01-26T16:28:20.214Z,99715.30
2019-01-26T16:30:51.882Z,99716.63
2019-01-26T16:33:23.449Z,99718.95
2019-01-26T16:35:55.041Z,99716.20
2019-01-26T16:38:26.650Z,99718.30
2019-01-26T16:40:58.339Z,99723.20
2019-01-26T16:43:29.976Z,99728.07
2019-01-26T16:46:01.651Z,99732.41
2019-01-26T16:48:33.243Z,99730.57
2019-01-26T16:51:05.062Z,99732.14
2019-01-26T16:53:36.679Z,99729.10
2019-01-26T16:56:08.288Z,99735.72
2019-01-26T16:58:40.025Z,99735.73
2019-01-26T17:01:12.706Z,99732.30
2019-01-26T17:03:44.478Z,99727.53
2019-01-26T17:06:16.281Z,99743.78
2019-01-26T17:08:48.242Z,99729.19
2019-01-26T17:11:21.464Z,99734.14
2019-01-26T17:13:53.129Z,99729.25
2019-01-26T17:16:25.461Z,99731.97
2019-01-26T17:18:57.067Z,99727.50
2019-01-26T17:21:28.847Z,99730.16
2019-01-26T17:24:00.508Z,99726.61
2019-01-26T17:26:32.172Z,99728.52
2019-01-26T17:29:03.850Z,99721.80
2019-01-26T17:31:35.657Z,99730.92
2019-01-26T17:34:07.321Z,99727.25
2019-01-26T17:36:42.329Z,99738.16
2019-01-26T17:39:15.123Z,99728.42
2019-01-26T17:41:49.663Z,99727.94
2019-01-26T17:44:21.444Z,99732.84
2019-01-26T17:46:53.496Z,99733.72
2019-01-26T17:49:25.883Z,99741.21
2019-01-26T17:51:57.504Z,99743.42
2019-01-26T17:54:33.397Z,99738.54
2019-01-26T17:57:05.295Z,99733.65
2019-01-26T17:59:38.454Z,99726.66
2019-01-26T18:02:11.733Z,99730.73
2019-01-26T18:04:45.366Z,99720.23
2019-01-26T18:07:19.446Z,99720.37
2019-01-26T18:09:54.442Z,99719.87
2019-01-26T18:12:27.116Z,99714.92
2019-01-26T18:15:00.449Z,99715.88
2019-01-26T18:17:35.778Z,99723.66
2019-01-26T18:20:12.663Z,99718.53
2019-01-26T18:22:50.451Z,99723.91
2019-01-26T18:25:28.106Z,99724.25
2019-01-26T18:27:59.754Z,99723.58
2019-01-26T18:30:38.721Z,99718.89
2019-01-26T18:33:15.425Z,99727.72
2019-01-26T18:35:48.584Z,99723.05
2019-01-26T18:38:24.474Z,99718.77
2019-01-26T18:41:05.023Z,99714.59
2019-01-26T18:43:42.209Z,99705.86
2019-01-26T18:46:14.356Z,99705.30
2019-01-26T18:48:51.132Z,99707.41
2019-01-26T18:51:24.446Z,99711.75
2019-01-26T18:54:06.932Z,99705.66
2019-01-26T18:56:40.096Z,99706.77
2019-01-26T18:59:21.009Z,99701.07
2019-01-26T19:01:58.798Z,99707.14
2019-01-26T19:04:37.187Z,99711.43
2019-01-26T19:07:10.538Z,99713.47
2019-01-26T19:09:43.867Z,99710.46
2019-01-26T19:12:16.463Z,99708.73
2019-01-26T19:15:09.557Z,99707.41
2019-01-26T19:17:41.802Z,99699.66
2019-01-26T19:20:20.866Z,99698.73
2019-01-26T19:22:55.578Z,99695.44
2019-01-26T19:25:43.201Z,99703.33
2019-01-26T19:28:27.434Z,99695.09
2019-01-26T19:34:02.917Z,99687.23
2019-01-26T19:36:41.691Z,99683.27
2019-01-26T19:39:20.970Z,99681.84
2019-01-26T19:41:55.820Z,99689.70
2019-01-26T19:44:33.714Z,99690.47
2019-01-26T19:47:05.321Z,99682.84
2019-01-26T19:49:36.928Z,99695.47
2019-01-26T19:52:08.593Z,99690.38
2019-01-26T19:54:40.173Z,99697.77
2019-01-26T19:57:19.507Z,99691.56
2019-01-26T19:59:51.178Z,99691.20
2019-01-26T20:02:25.028Z,99688.57
2019-01-26T20:04:56.610Z,99686.41
2019-01-26T20:07:28.480Z,99680.20
2019-01-26T20:10:02.135Z,99679.42
2019-01-26T20:12:33.798Z,99671.62
2019-01-26T20:15:23.517Z,99680.96
2019-01-26T20:17:55.223Z,99681.74
2019-01-26T20:20:39.497Z,99684.25
2019-01-26T20:23:11.087Z,99681.08
2019-01-26T20:25:42.745Z,99673.65
2019-01-26T20:28:17.000Z,99671.14
2019-01-26T20:30:48.640Z,99682.64
2019-01-26T20:33:23.530Z,99673.30
2019-01-26T20:36:01.009Z,99675.11
2019-01-26T20:38:36.470Z,99674.39
2019-01-26T20:41:10.861Z,99671.64
2019-01-26T20:43:42.533Z,99673.68
2019-01-26T20:46:14.274Z,99665.87
2019-01-26T20:48:47.534Z,99666.93
2019-01-26T20:51:25.014Z,99663.20
2019-01-26T20:53:55.786Z,99660.49
2019-01-26T20:56:27.403Z,99661.31
2019-01-26T20:59:03.239Z,99667.36
2019-01-26T21:01:36.464Z,99663.48
2019-01-26T21:04:08.605Z,99661.55
2019-01-26T21:06:40.227Z,99663.94
2019-01-26T21:09:11.890Z,99660.88
2019-01-26T21:11:43.678Z,99655.73
2019-01-26T21:14:17.859Z,99659.40
2019-01-26T21:16:49.529Z,99656.67
2019-01-26T21:19:24.696Z,99657.14
2019-01-26T21:21:56.707Z,99654.98
2019-01-26T21:24:28.978Z,99653.81
2019-01-26T21:27:00.666Z,99656.59
2019-01-26T21:29:32.365Z,99654.73
2019-01-26T21:32:05.644Z,99649.59
2019-01-26T21:34:37.884Z,99649.11
2019-01-26T21:37:09.710Z,99648.77
2019-01-26T21:39:41.499Z,99653.45
2019-01-26T21:42:21.250Z,99650.61
2019-01-26T21:44:56.021Z,99651.41
2019-01-26T21:47:27.820Z,99647.88
2019-01-26T21:49:59.520Z,99648.70
2019-01-26T21:52:31.274Z,99646.36
2019-01-26T21:55:03.114Z,99652.80
2019-01-26T21:57:34.879Z,99648.36
2019-01-26T22:00:11.853Z,99637.08
2019-01-26T22:02:43.684Z,99635.36
2019-01-26T22:05:15.779Z,99632.05
2019-01-26T22:07:51.427Z,99625.25
2019-01-26T22:10:28.632Z,99624.08
2019-01-26T22:13:00.499Z,99622.52
2019-01-26T22:15:33.756Z,99617.28
2019-01-26T22:18:07.038Z,99615.96
2019-01-26T22:20:38.774Z,99614.05
2019-01-26T22:23:10.639Z,99611.00
2019-01-26T22:25:42.256Z,99627.49
2019-01-26T22:28:13.934Z,99618.44
2019-01-26T22:30:45.873Z,99612.55
2019-01-26T22:33:20.054Z,99608.26
2019-01-26T22:35:51.788Z,99604.91
2019-01-26T22:38:23.612Z,99603.20
2019-01-26T22:40:55.539Z,99603.30
2019-01-26T22:43:27.375Z,99602.30
2019-01-26T22:45:59.054Z,99601.55
2019-01-26T22:48:32.541Z,99593.23
2019-01-26T22:51:04.325Z,99594.31
2019-01-26T22:53:36.246Z,99595.66
2019-01-26T22:56:08.224Z,99597.08
2019-01-26T22:58:40.277Z,99600.61
2019-01-26T23:01:14.875Z,99591.59
2019-01-26T23:03:51.387Z,99594.89
2019-01-26T23:06:38.311Z,99603.23
2019-01-26T23:09:22.258Z,99599.55
2019-01-26T23:12:13.965Z,99605.28
2019-01-26T23:15:31.290Z,99603.00
2019-01-26T23:18:25.948Z,99597.89
2019-01-26T23:21:28.643Z,99588.25
2019-01-26T23:24:26.282Z,99584.11
2019-01-26T23:27:20.319Z,99577.56
2019-01-26T23:30:16.563Z,99566.12
2019-01-26T23:32:48.140Z,99558.01
2019-01-26T23:35:19.998Z,99561.39
2019-01-26T23:37:51.627Z,99556.87
2019-01-26T23:40:23.241Z,99548.87
2019-01-26T23:42:54.840Z,99545.25
2019-01-26T23:45:26.427Z,99542.56
2019-01-26T23:47:59.135Z,99541.16
2019-01-26T23:50:30.825Z,99540.80
2019-01-26T23:53:02.642Z,99541.38
2019-01-26T23:55:34.236Z,99531.52
2019-01-26T23:58:07.341Z,99529.66
